createdAt,value
2022-11-26T00:02:22.849Z,6.21
2022-11-26T00:04:51.084Z,6.23
2022-11-26T00:07:22.662Z,6.25
2022-11-26T00:09:50.492Z,6.28
2022-11-26T00:12:19.572Z,6.31
2022-11-26T00:14:47.453Z,6.32
2022-11-26T00:17:15.620Z,6.34
2022-11-26T00:19:44.442Z,6.28
2022-11-26T00:22:29.598Z,6.31
2022-11-26T00:24:57.136Z,6.31
2022-11-26T00:27:28.377Z,6.32
2022-11-26T00:29:56.002Z,6.31
2022-11-26T00:32:26.627Z,6.34
2022-11-26T00:34:54.024Z,6.31
2022-11-26T00:37:38.599Z,6.31
2022-11-26T00:40:06.444Z,6.23
2022-11-26T00:42:33.411Z,6.29
2022-11-26T00:45:00.404Z,6.31
2022-11-26T00:47:27.254Z,6.33
2022-11-26T00:49:54.182Z,6.27
2022-11-26T00:52:28.756Z,6.29
2022-11-26T00:54:56.399Z,6.21
2022-11-26T00:57:23.454Z,6.22
2022-11-26T00:59:50.549Z,6.15
2022-11-26T01:02:17.534Z,6.09
2022-11-26T01:04:45.309Z,6.08
2022-11-26T01:07:12.307Z,6.04
2022-11-26T01:09:48.297Z,6.08
2022-11-26T01:12:15.694Z,6.05
2022-11-26T01:14:42.682Z,6.08
2022-11-26T01:17:12.724Z,6.11
2022-11-26T01:19:39.822Z,5.94
2022-11-26T01:22:06.683Z,6.11
2022-11-26T01:24:33.760Z,6.09
2022-11-26T01:27:00.703Z,6.10
2022-11-26T01:29:28.279Z,6.07
2022-11-26T01:31:55.368Z,6.06
2022-11-26T01:34:22.451Z,6.09
2022-11-26T01:36:49.322Z,6.00
2022-11-26T01:39:19.000Z,5.98
2022-11-26T01:42:07.780Z,5.90
2022-11-26T01:44:37.856Z,5.83
2022-11-26T01:47:29.520Z,5.78
2022-11-26T01:50:34.266Z,5.70
2022-11-26T01:53:14.561Z,5.61
2022-11-26T01:55:56.307Z,5.65
2022-11-26T01:58:29.296Z,5.65
2022-11-26T02:00:56.733Z,5.73
2022-11-26T02:03:24.890Z,5.69
2022-11-26T02:06:00.178Z,5.61
2022-11-26T02:08:30.300Z,5.55
2022-11-26T02:10:57.369Z,5.55
2022-11-26T02:13:25.594Z,5.56
2022-11-26T02:16:07.240Z,5.57
2022-11-26T02:18:41.484Z,5.62
2022-11-26T02:21:21.230Z,5.60
2022-11-26T02:24:12.852Z,5.67
2022-11-26T02:27:15.108Z,5.70
2022-11-26T02:30:02.608Z,5.65
2022-11-26T02:32:47.390Z,5.72
2022-11-26T02:35:26.583Z,5.73
2022-11-26T02:38:02.791Z,5.73
2022-11-26T02:40:29.894Z,5.75
2022-11-26T02:42:56.973Z,5.77
2022-11-26T02:45:28.904Z,5.75
2022-11-26T02:48:00.293Z,5.71
2022-11-26T02:50:45.950Z,5.70
2022-11-26T02:53:15.852Z,5.68
2022-11-26T02:55:47.837Z,5.73
2022-11-26T02:58:14.918Z,5.66
2022-11-26T03:00:43.475Z,5.69
2022-11-26T03:03:24.166Z,5.68
2022-11-26T03:05:55.888Z,5.63
2022-11-26T03:08:23.894Z,5.59
2022-11-26T03:10:50.889Z,5.49
2022-11-26T03:13:18.037Z,5.53
2022-11-26T03:15:44.955Z,5.52
2022-11-26T03:18:11.959Z,5.50
2022-11-26T03:20:38.988Z,5.37
2022-11-26T03:23:06.105Z,5.45
2022-11-26T03:25:33.698Z,5.43
2022-11-26T03:28:01.853Z,5.45
2022-11-26T03:30:28.797Z,5.42
2022-11-26T03:32:56.109Z,5.43
2022-11-26T03:35:23.476Z,5.35
2022-11-26T03:37:50.583Z,5.33
2022-11-26T03:40:17.892Z,5.31
2022-11-26T03:42:45.879Z,5.28
2022-11-26T03:45:13.164Z,5.28
2022-11-26T03:47:40.131Z,5.15
2022-11-26T03:50:07.939Z,5.14
2022-11-26T03:52:35.047Z,5.02
2022-11-26T03:55:01.854Z,5.02
2022-11-26T03:57:28.969Z,4.91
2022-11-26T03:59:55.892Z,4.97
2022-11-26T04:02:22.889Z,4.93
2022-11-26T04:04:50.863Z,4.96
2022-11-26T04:07:17.919Z,4.81
2022-11-26T04:09:44.923Z,4.88
2022-11-26T04:12:11.939Z,4.82
2022-11-26T04:14:39.084Z,4.83
2022-11-26T04:17:06.274Z,4.76
2022-11-26T04:19:33.327Z,4.82
2022-11-26T04:22:00.248Z,4.79
2022-11-26T04:24:27.250Z,4.73
2022-11-26T04:26:54.175Z,4.73
2022-11-26T04:29:21.085Z,4.69
2022-11-26T04:31:48.101Z,4.60
2022-11-26T04:34:15.089Z,4.59
2022-11-26T04:36:41.953Z,4.57
2022-11-26T04:39:08.949Z,4.27
2022-11-26T04:41:36.925Z,4.46
2022-11-26T04:44:04.465Z,4.32
2022-11-26T04:46:31.405Z,4.33
2022-11-26T04:48:58.340Z,4.28
2022-11-26T04:51:25.423Z,4.25
2022-11-26T04:53:55.605Z,4.24
2022-11-26T04:56:23.767Z,4.26
2022-11-26T04:58:50.707Z,4.19
2022-11-26T05:01:17.684Z,4.11
2022-11-26T05:03:44.765Z,4.00
2022-11-26T05:06:11.860Z,3.99
2022-11-26T05:08:38.767Z,3.90
2022-11-26T05:11:05.999Z,3.72
2022-11-26T05:13:32.884Z,3.87
2022-11-26T05:15:59.856Z,3.82
2022-11-26T05:18:26.926Z,3.72
2022-11-26T05:20:54.694Z,3.82
2022-11-26T05:23:21.544Z,3.83
2022-11-26T05:25:48.640Z,3.82
2022-11-26T05:28:15.649Z,3.84
2022-11-26T05:30:42.677Z,3.82
2022-11-26T05:33:09.784Z,3.74
2022-11-26T05:35:38.417Z,3.68
2022-11-26T05:38:05.388Z,3.75
2022-11-26T05:40:32.995Z,3.75
2022-11-26T05:42:59.943Z,3.70
2022-11-26T05:45:26.963Z,3.75
2022-11-26T05:47:53.845Z,3.81
2022-11-26T05:50:20.849Z,3.83
2022-11-26T05:52:53.334Z,3.74
2022-11-26T05:55:20.719Z,3.78
2022-11-26T05:57:47.760Z,3.75
2022-11-26T06:00:15.374Z,3.83
2022-11-26T06:02:42.565Z,3.86
2022-11-26T06:05:10.242Z,3.80
2022-11-26T06:07:40.507Z,3.80
2022-11-26T06:10:10.740Z,3.77
2022-11-26T06:12:37.738Z,3.77
2022-11-26T06:15:05.126Z,3.78
2022-11-26T06:17:32.020Z,3.77
2022-11-26T06:19:58.983Z,3.75
2022-11-26T06:22:25.918Z,3.74
2022-11-26T06:24:52.763Z,3.69
2022-11-26T06:27:19.755Z,3.69
2022-11-26T06:29:46.687Z,3.73
2022-11-26T06:32:13.575Z,3.76
2022-11-26T06:34:43.774Z,3.80
2022-11-26T06:37:11.832Z,3.83
2022-11-26T06:39:38.764Z,3.84
2022-11-26T06:42:05.807Z,3.88
2022-11-26T06:44:36.748Z,3.92
2022-11-26T06:47:04.368Z,3.93
2022-11-26T06:49:31.427Z,3.94
2022-11-26T06:51:58.383Z,3.92
2022-11-26T06:54:25.332Z,4.00
2022-11-26T06:56:52.503Z,4.02
2022-11-26T06:59:19.324Z,4.07
2022-11-26T07:01:46.555Z,4.09
2022-11-26T07:04:13.909Z,4.13
2022-11-26T07:06:42.284Z,4.15
2022-11-26T07:09:11.484Z,4.07
2022-11-26T07:11:39.883Z,4.19
2022-11-26T07:14:07.727Z,4.19
2022-11-26T07:16:35.486Z,4.14
2022-11-26T07:19:03.280Z,4.10
2022-11-26T07:21:30.925Z,4.17
2022-11-26T07:23:58.590Z,4.24
2022-11-26T07:26:25.598Z,4.30
2022-11-26T07:28:53.644Z,4.32
2022-11-26T07:31:23.305Z,4.37
2022-11-26T07:33:51.162Z,4.46
2022-11-26T07:36:21.758Z,4.53
2022-11-26T07:38:49.093Z,4.55
2022-11-26T07:41:19.300Z,4.57
2022-11-26T07:43:46.996Z,4.57
2022-11-26T07:46:18.218Z,4.53
2022-11-26T07:48:46.253Z,4.50
2022-11-26T07:51:28.206Z,4.60
2022-11-26T07:53:56.725Z,4.60
2022-11-26T07:56:23.725Z,4.62
2022-11-26T07:58:51.005Z,4.63
2022-11-26T08:01:21.112Z,4.62
2022-11-26T08:03:50.250Z,4.66
2022-11-26T08:06:25.484Z,4.62
2022-11-26T08:08:53.172Z,4.50
2022-11-26T08:11:26.398Z,4.43
2022-11-26T08:13:55.484Z,4.49
2022-11-26T08:16:22.484Z,4.58
2022-11-26T08:18:53.984Z,4.64
2022-11-26T08:21:22.764Z,4.72
2022-11-26T08:23:50.859Z,4.77
2022-11-26T08:26:25.263Z,4.85
2022-11-26T08:28:59.604Z,4.94
2022-11-26T08:31:28.316Z,4.93
2022-11-26T08:34:00.196Z,4.85
2022-11-26T08:36:32.270Z,5.04
2022-11-26T08:39:00.526Z,5.10
2022-11-26T08:41:27.593Z,5.13
2022-11-26T08:44:10.640Z,4.84
2022-11-26T08:46:39.377Z,5.22
2022-11-26T08:49:07.890Z,5.22
2022-11-26T08:51:34.911Z,5.27
2022-11-26T08:54:02.286Z,5.32
2022-11-26T08:56:29.324Z,5.38
2022-11-26T08:58:56.389Z,5.44
2022-11-26T09:01:30.521Z,5.51
2022-11-26T09:03:59.597Z,5.49
2022-11-26T09:06:29.563Z,5.50
2022-11-26T09:09:15.625Z,5.34
2022-11-26T09:11:44.662Z,5.53
2022-11-26T09:14:12.783Z,5.58
2022-11-26T09:16:41.577Z,5.68
2022-11-26T09:19:08.966Z,5.73
2022-11-26T09:21:36.589Z,5.81
2022-11-26T09:24:04.224Z,5.86
2022-11-26T09:26:32.668Z,5.91
2022-11-26T09:28:59.821Z,5.81
2022-11-26T09:31:27.322Z,6.00
2022-11-26T09:33:59.257Z,6.04
2022-11-26T09:36:27.119Z,6.10
2022-11-26T09:38:59.338Z,6.16
2022-11-26T09:41:44.633Z,6.18
2022-11-26T09:45:03.833Z,6.24
2022-11-26T09:47:39.801Z,6.23
2022-11-26T09:50:16.030Z,6.22
2022-11-26T09:53:17.148Z,6.25
2022-11-26T09:55:48.141Z,6.21
2022-11-26T09:58:33.537Z,6.16
2022-11-26T10:01:06.944Z,6.16
2022-11-26T10:03:37.192Z,6.16
2022-11-26T10:06:20.173Z,6.14
2022-11-26T10:09:18.076Z,6.15
2022-11-26T10:12:26.643Z,6.18
2022-11-26T10:15:02.044Z,6.22
2022-11-26T10:17:41.394Z,6.30
2022-11-26T10:20:26.298Z,6.31
2022-11-26T10:23:12.417Z,6.29
2022-11-26T10:26:18.525Z,6.21
2022-11-26T10:28:50.468Z,6.19
2022-11-26T10:31:27.455Z,6.34
2022-11-26T10:33:56.318Z,6.39
2022-11-26T10:36:33.299Z,6.42
2022-11-26T10:39:00.619Z,6.43
2022-11-26T10:41:31.274Z,6.51
2022-11-26T10:44:30.147Z,6.54
2022-11-26T10:46:58.353Z,6.55
2022-11-26T10:49:28.938Z,6.54
2022-11-26T10:52:08.348Z,6.61
2022-11-26T10:54:38.033Z,6.77
2022-11-26T10:57:11.168Z,6.81
2022-11-26T10:59:58.486Z,6.88
2022-11-26T11:02:41.479Z,6.93
2022-11-26T11:05:10.119Z,7.12
2022-11-26T11:07:37.180Z,7.23
2022-11-26T11:10:10.538Z,7.37
2022-11-26T11:12:42.412Z,7.50
2022-11-26T11:15:20.801Z,7.62
2022-11-26T11:17:56.580Z,7.69
2022-11-26T11:20:31.549Z,7.67
2022-11-26T11:23:16.831Z,7.74
2022-11-26T11:25:59.496Z,7.83
2022-11-26T11:28:30.088Z,7.79
2022-11-26T11:31:00.059Z,8.02
2022-11-26T11:33:28.825Z,8.15
2022-11-26T11:36:06.203Z,8.23
2022-11-26T11:38:49.129Z,8.34
2022-11-26T11:41:25.688Z,8.42
2022-11-26T11:44:04.208Z,8.33
2022-11-26T11:46:39.950Z,8.47
2022-11-26T11:49:34.734Z,8.52
2022-11-26T11:52:47.567Z,8.59
2022-11-26T11:55:32.812Z,8.69
2022-11-26T11:58:42.714Z,8.79
2022-11-26T12:01:15.817Z,8.90
2022-11-26T12:04:05.149Z,9.24
2022-11-26T12:07:19.501Z,9.51
2022-11-26T12:10:27.101Z,9.68
2022-11-26T12:13:00.260Z,9.97
2022-11-26T12:15:40.665Z,10.34
2022-11-26T12:18:24.459Z,10.59
2022-11-26T12:20:57.389Z,10.74
2022-11-26T12:23:31.958Z,10.70
2022-11-26T12:26:13.190Z,10.58
2022-11-26T12:28:58.885Z,10.60
2022-11-26T12:31:28.057Z,10.70
2022-11-26T12:34:07.103Z,10.74
2022-11-26T12:37:11.458Z,10.80
2022-11-26T12:39:57.620Z,10.87
2022-11-26T12:42:48.671Z,10.91
2022-11-26T12:45:42.191Z,10.98
2022-11-26T12:48:18.535Z,11.21
2022-11-26T12:50:55.166Z,11.48
2022-11-26T12:53:25.309Z,11.74
2022-11-26T12:56:04.750Z,12.00
2022-11-26T12:58:46.012Z,12.36
2022-11-26T13:01:13.318Z,12.69
2022-11-26T13:03:41.506Z,13.01
2022-11-26T13:06:52.461Z,13.72
2022-11-26T13:09:41.606Z,14.40
2022-11-26T13:12:22.610Z,14.62
2022-11-26T13:15:07.758Z,15.04
2022-11-26T13:17:43.366Z,15.31
2022-11-26T13:20:47.359Z,15.33
2022-11-26T13:23:32.670Z,14.94
2022-11-26T13:26:11.429Z,14.68
2022-11-26T13:29:16.305Z,14.36
2022-11-26T13:31:56.318Z,14.19
2022-11-26T13:34:38.652Z,14.16
2022-11-26T13:37:41.828Z,14.09
2022-11-26T13:40:14.811Z,14.07
2022-11-26T13:43:32.562Z,13.88
2022-11-26T13:46:24.156Z,13.44
2022-11-26T13:49:00.517Z,13.15
2022-11-26T13:51:45.789Z,12.87
2022-11-26T13:54:22.488Z,12.56
2022-11-26T13:56:55.958Z,12.43
2022-11-26T13:59:28.352Z,12.29
2022-11-26T14:01:56.866Z,12.25
2022-11-26T14:04:23.799Z,12.37
2022-11-26T14:07:06.829Z,12.22
2022-11-26T14:09:43.173Z,11.97
2022-11-26T14:12:17.988Z,11.62
2022-11-26T14:14:47.994Z,11.42
2022-11-26T14:17:22.963Z,11.60
2022-11-26T14:19:51.951Z,12.11
2022-11-26T14:22:21.899Z,12.52
2022-11-26T14:24:49.146Z,12.88
2022-11-26T14:27:20.436Z,13.18
2022-11-26T14:29:55.012Z,13.35
2022-11-26T14:32:24.788Z,13.22
2022-11-26T14:34:54.193Z,12.64
2022-11-26T14:37:25.068Z,11.81
2022-11-26T14:39:59.950Z,11.14
2022-11-26T14:42:28.835Z,10.59
2022-11-26T14:45:16.038Z,10.09
2022-11-26T14:47:50.277Z,9.78
2022-11-26T14:50:21.209Z,9.51
2022-11-26T14:52:59.238Z,9.22
2022-11-26T14:55:30.348Z,8.99
2022-11-26T14:58:09.183Z,8.79
2022-11-26T15:00:37.068Z,8.54
2022-11-26T15:03:04.586Z,8.43
2022-11-26T15:05:34.430Z,8.26
2022-11-26T15:08:02.648Z,8.13
2022-11-26T15:10:40.807Z,7.98
2022-11-26T15:13:26.507Z,7.77
2022-11-26T15:15:59.127Z,7.69
2022-11-26T15:18:30.801Z,7.39
2022-11-26T15:20:59.367Z,7.44
2022-11-26T15:23:35.591Z,7.28
2022-11-26T15:26:03.227Z,7.16
2022-11-26T15:28:38.089Z,6.97
2022-11-26T15:31:08.664Z,6.81
2022-11-26T15:33:37.731Z,6.73
2022-11-26T15:36:11.573Z,6.47
2022-11-26T15:39:06.537Z,6.46
2022-11-26T15:41:42.401Z,6.31
2022-11-26T15:44:42.931Z,6.17
2022-11-26T15:47:20.433Z,5.93
2022-11-26T15:49:52.236Z,5.90
2022-11-26T15:52:24.596Z,5.83
2022-11-26T15:55:18.845Z,5.75
2022-11-26T15:57:51.880Z,5.64
2022-11-26T16:00:27.686Z,5.54
2022-11-26T16:02:54.857Z,5.37
2022-11-26T16:05:38.964Z,5.29
2022-11-26T16:08:32.739Z,5.17
2022-11-26T16:11:05.713Z,5.07
2022-11-26T16:13:34.832Z,4.95
2022-11-26T16:16:04.690Z,4.90
2022-11-26T16:18:38.691Z,4.83
2022-11-26T16:21:27.820Z,4.75
2022-11-26T16:24:02.868Z,4.67
2022-11-26T16:26:30.769Z,4.57
2022-11-26T16:28:57.866Z,4.46
2022-11-26T16:31:24.899Z,4.44
2022-11-26T16:33:51.964Z,4.42
2022-11-26T16:36:26.496Z,4.37
2022-11-26T16:38:53.790Z,4.32
2022-11-26T16:41:22.621Z,4.23
2022-11-26T16:43:50.033Z,4.16
2022-11-26T16:46:23.767Z,4.13
2022-11-26T16:48:52.049Z,4.01
2022-11-26T16:51:20.120Z,3.94
2022-11-26T16:53:47.548Z,3.94
2022-11-26T16:56:33.171Z,3.86
2022-11-26T16:59:00.293Z,3.82
2022-11-26T17:01:27.395Z,3.75
2022-11-26T17:03:54.613Z,3.66
2022-11-26T17:06:41.746Z,3.63
2022-11-26T17:09:17.142Z,3.58
2022-11-26T17:11:44.383Z,3.54
2022-11-26T17:14:11.694Z,3.48
2022-11-26T17:16:45.357Z,3.48
2022-11-26T17:19:14.473Z,3.42
2022-11-26T17:21:42.876Z,3.41
2022-11-26T17:24:10.012Z,3.40
2022-11-26T17:26:37.033Z,3.35
2022-11-26T17:29:05.249Z,3.29
2022-11-26T17:31:32.298Z,3.23
2022-11-26T17:33:59.319Z,3.17
2022-11-26T17:36:26.413Z,3.06
2022-11-26T17:38:53.484Z,3.10
2022-11-26T17:41:20.516Z,3.05
2022-11-26T17:43:47.795Z,3.00
2022-11-26T17:46:22.298Z,2.83
2022-11-26T17:48:55.550Z,2.97
2022-11-26T17:51:25.419Z,2.94
2022-11-26T17:53:52.416Z,2.91
2022-11-26T17:56:22.266Z,2.85
2022-11-26T17:58:49.749Z,2.85
2022-11-26T18:01:18.098Z,2.81
2022-11-26T18:03:46.008Z,2.79
2022-11-26T18:06:47.239Z,2.83
2022-11-26T18:09:14.210Z,2.85
2022-11-26T18:11:50.624Z,2.90
2022-11-26T18:14:18.513Z,2.95
2022-11-26T18:16:45.687Z,3.02
2022-11-26T18:19:15.006Z,3.01
2022-11-26T18:21:43.176Z,3.13
2022-11-26T18:24:10.870Z,3.22
2022-11-26T18:26:38.234Z,3.24
2022-11-26T18:29:05.848Z,3.33
2022-11-26T18:31:39.129Z,3.38
2022-11-26T18:34:07.848Z,3.43
2022-11-26T18:36:35.075Z,3.48
2022-11-26T18:39:05.879Z,3.53
2022-11-26T18:41:34.428Z,3.53
2022-11-26T18:44:02.311Z,3.49
2022-11-26T18:46:29.737Z,3.51
2022-11-26T18:48:59.049Z,3.53
2022-11-26T18:51:26.698Z,3.58
2022-11-26T18:53:53.865Z,3.48
2022-11-26T18:56:23.472Z,3.49
2022-11-26T18:58:51.836Z,3.50
2022-11-26T19:01:29.452Z,3.54
2022-11-26T19:03:58.359Z,3.58
2022-11-26T19:06:31.181Z,3.56
2022-11-26T19:09:16.719Z,3.60
2022-11-26T19:11:45.370Z,3.65
2022-11-26T19:14:14.425Z,3.63
2022-11-26T19:16:43.973Z,3.63
2022-11-26T19:19:11.162Z,3.69
2022-11-26T19:21:38.505Z,3.63
2022-11-26T19:24:08.483Z,3.73
2022-11-26T19:26:37.715Z,3.79
2022-11-26T19:29:06.649Z,3.82
2022-11-26T19:31:37.930Z,3.80
2022-11-26T19:34:11.493Z,3.79
2022-11-26T19:36:38.788Z,3.80
2022-11-26T19:39:10.717Z,3.84
2022-11-26T19:41:37.954Z,3.84
2022-11-26T19:44:07.672Z,3.92
2022-11-26T19:46:37.561Z,3.87
2022-11-26T19:49:04.518Z,4.03
2022-11-26T19:51:31.951Z,3.99
2022-11-26T19:53:59.549Z,4.08
2022-11-26T19:56:29.809Z,4.15
2022-11-26T19:59:02.327Z,4.12
2022-11-26T20:01:32.782Z,4.14
2022-11-26T20:04:03.707Z,4.23
2022-11-26T20:06:32.738Z,4.27
2022-11-26T20:09:00.900Z,4.30
2022-11-26T20:11:29.608Z,4.27
2022-11-26T20:13:58.169Z,4.37
2022-11-26T20:16:28.433Z,4.44
2022-11-26T20:18:56.489Z,4.49
2022-11-26T20:21:26.249Z,4.51
2022-11-26T20:23:57.410Z,4.57
2022-11-26T20:26:29.898Z,4.57
2022-11-26T20:29:01.577Z,4.55
2022-11-26T20:31:29.593Z,4.54
2022-11-26T20:33:56.760Z,4.51
2022-11-26T20:36:24.227Z,4.52
2022-11-26T20:38:56.029Z,4.51
2022-11-26T20:41:24.758Z,4.46
2022-11-26T20:43:56.792Z,4.29
2022-11-26T20:46:26.882Z,4.32
2022-11-26T20:48:55.707Z,4.33
2022-11-26T20:51:23.560Z,4.36
2022-11-26T20:53:53.041Z,4.43
2022-11-26T20:56:22.293Z,4.48
2022-11-26T20:58:51.396Z,4.49
2022-11-26T21:01:28.596Z,4.51
2022-11-26T21:03:58.482Z,4.49
2022-11-26T21:06:30.767Z,4.46
2022-11-26T21:09:05.754Z,4.43
2022-11-26T21:11:33.071Z,4.34
2022-11-26T21:14:01.690Z,4.37
2022-11-26T21:16:30.366Z,4.42
2022-11-26T21:18:57.988Z,4.44
2022-11-26T21:21:26.359Z,4.48
2022-11-26T21:23:54.542Z,4.50
2022-11-26T21:26:24.804Z,4.52
2022-11-26T21:28:53.669Z,4.57
2022-11-26T21:31:21.657Z,4.56
2022-11-26T21:33:59.139Z,4.56
2022-11-26T21:36:26.862Z,4.45
2022-11-26T21:38:53.808Z,4.45
2022-11-26T21:41:21.829Z,4.49
2022-11-26T21:43:49.710Z,4.50
2022-11-26T21:46:23.748Z,4.54
2022-11-26T21:48:58.199Z,4.43
2022-11-26T21:51:27.769Z,4.57
2022-11-26T21:53:55.978Z,4.58
2022-11-26T21:56:31.521Z,4.60
2022-11-26T21:59:00.361Z,4.53
2022-11-26T22:01:33.301Z,4.49
2022-11-26T22:04:03.886Z,4.48
2022-11-26T22:06:30.971Z,4.42
2022-11-26T22:08:58.309Z,4.46
2022-11-26T22:11:31.372Z,4.38
2022-11-26T22:13:58.879Z,4.40
2022-11-26T22:16:27.580Z,4.28
2022-11-26T22:18:56.597Z,4.31
2022-11-26T22:21:39.310Z,4.18
2022-11-26T22:24:10.115Z,4.18
2022-11-26T22:26:37.770Z,4.15
2022-11-26T22:29:05.270Z,4.19
2022-11-26T22:31:36.076Z,4.24
2022-11-26T22:34:15.246Z,4.31
2022-11-26T22:36:44.049Z,4.35
2022-11-26T22:39:13.506Z,4.35
2022-11-26T22:41:41.587Z,4.32
2022-11-26T22:44:09.458Z,4.16
2022-11-26T22:46:38.578Z,4.25
2022-11-26T22:49:07.062Z,4.14
2022-11-26T22:51:35.658Z,4.07
2022-11-26T22:54:05.168Z,4.09
2022-11-26T22:56:32.428Z,4.11
2022-11-26T22:59:01.736Z,4.16
2022-11-26T23:01:31.654Z,4.09
2022-11-26T23:04:01.343Z,4.22
2022-11-26T23:06:31.137Z,4.21
2022-11-26T23:08:59.371Z,4.23
2022-11-26T23:11:32.853Z,4.24
2022-11-26T23:14:02.203Z,4.18
2022-11-26T23:16:29.522Z,4.20
2022-11-26T23:18:57.860Z,4.26
2022-11-26T23:21:26.447Z,4.31
2022-11-26T23:23:54.461Z,4.33
2022-11-26T23:26:27.432Z,4.33
2022-11-26T23:28:56.081Z,4.39
2022-11-26T23:31:26.264Z,4.37
2022-11-26T23:33:54.041Z,4.38
2022-11-26T23:36:21.836Z,4.38
2022-11-26T23:38:49.007Z,4.36
2022-11-26T23:41:16.891Z,4.40
2022-11-26T23:43:44.381Z,4.38
2022-11-26T23:46:14.633Z,4.36
2022-11-26T23:48:43.564Z,4.35
2022-11-26T23:51:20.703Z,4.33
2022-11-26T23:53:48.851Z,4.30
2022-11-26T23:56:19.010Z,4.30
2022-11-26T23:58:50.071Z,4.32
